Meloria — IBXK — position and weather

sailwx.info

Track history (hours):
 
Tides and Currents Weather Stations Pressure Air Temp Water Temp Dewpoint Dewpoint Depression Visibility Wind Speed Wind Dir Waves Ship Positions

Meloria

Last reported at 2014-Jul-13 07:33 UTC. Time now 2014-Aug-01 15:53 UTC.
Position N 38°18' E 015°24'.
Warning: this ship's position is 19 days out of date.

Length 176 m; draft 8 m.

Type: Ship (hazmat cat A). MMSI: 247171100.

Date/timePositionNaut miles runAvg speedWind from/ knotsBaromVisibWave heightAir tempDewpointWater temp
2014-Jul-13 07:33N 38°18' E 015°24'8 7.9
2014-Jul-13 06:30N 38°13' E 015°16'0 0.0
2014-Jul-13 05:30N 38°13' E 015°16'0 0.0
2014-Jul-12 18:30N 38°13' E 015°16'0 0.0
2014-Jul-12 17:30N 38°13' E 015°16'0 0.0
2014-Jul-12 16:29N 38°13' E 015°16'0 0.0
2014-Jul-12 15:29N 38°13' E 015°16'0 0.0
2014-Jul-12 14:23N 38°13' E 015°16'0 0.0
2014-Jul-12 13:29N 38°13' E 015°16'0 0.0
2014-Jul-12 12:29N 38°13' E 015°16'0 0.0
2014-Jul-12 11:29N 38°13' E 015°16'0 0.0
2014-Jul-12 10:29N 38°13' E 015°16'0 0.0
2014-Jul-12 09:29N 38°13' E 015°16'0 0.0
2014-Jul-12 08:29N 38°13' E 015°16'0 0.0
2014-Jul-12 07:11N 38°13' E 015°16'0 0.0
2014-Jul-12 06:29N 38°13' E 015°16'0 0.0
2014-Jul-12 05:29N 38°13' E 015°16'1 0.1
2014-Jul-11 16:32N 38°13' E 015°16'0 0.0
2014-Jul-11 15:32N 38°13' E 015°16'0 0.0
2014-Jul-11 14:32N 38°13' E 015°16'0 0.0
2014-Jul-11 13:32N 38°13' E 015°16'0 0.0
2014-Jul-11 12:26N 38°13' E 015°16'0 0.0
2014-Jul-11 11:32N 38°13' E 015°16'0 0.0
2014-Jul-11 10:32N 38°13' E 015°16'0 0.0
2014-Jul-11 09:32N 38°13' E 015°16'1 0.7
2014-Jul-11 08:33N 38°14' E 015°16'14812.1
2014-Jul-10 20:20N 40°26' E 013°48'1112.4
2014-Jul-10 19:29N 40°35' E 013°42'1111.8
2014-Jul-10 18:33N 40°46' E 013°38'1412.7
2014-Jul-10 17:27N 40°60' E 013°40'  
2014-Jul-08 04:05N 41°13' E 013°40'0 0.0
2014-Jul-08 00:32N 41°13' E 013°40'0 0.1
2014-Jul-07 23:20N 41°13' E 013°40'0 0.0
2014-Jul-07 22:26N 41°13' E 013°40'0 0.0
2014-Jul-07 20:32N 41°13' E 013°40'0 0.0
2014-Jul-07 19:29N 41°13' E 013°40'0 0.0
2014-Jul-07 18:32N 41°13' E 013°40'0 0.0
2014-Jul-07 17:32N 41°13' E 013°40'0 0.1
2014-Jul-07 16:23N 41°13' E 013°40'0 0.1
2014-Jul-07 15:32N 41°13' E 013°40'0 0.0
2014-Jul-07 14:32N 41°13' E 013°40'0 0.1
2014-Jul-07 13:29N 41°13' E 013°40'0 0.0
2014-Jul-07 12:32N 41°13' E 013°40'0 0.0
2014-Jul-07 11:32N 41°13' E 013°40'0 0.0
2014-Jul-07 08:17N 41°13' E 013°40'0 0.0
2014-Jul-07 04:25N 41°13' E 013°40'0 0.0
2014-Jul-07 03:33N 41°13' E 013°40'0 0.0
2014-Jul-07 02:28N 41°13' E 013°40'0 0.0
2014-Jul-07 01:33N 41°13' E 013°40'0 0.0
2014-Jul-07 00:33N 41°13' E 013°40'0 0.0
2014-Jul-06 23:32N 41°13' E 013°40'4 3.5
2014-Jul-06 22:29N 41°09' E 013°41'1213.0
2014-Jul-06 21:33N 40°57' E 013°40'1312.8
2014-Jul-06 20:33N 40°44' E 013°39'1110.6
2014-Jul-06 19:33N 40°34' E 013°43'1412.6
2014-Jul-06 18:28N 40°23' E 013°53'1213.0
2014-Jul-06 17:33N 40°13' E 014°03'1513.0
2014-Jul-06 16:26N 40°02' E 014°14'4113.3
2014-Jul-06 13:19N 39°28' E 014°44'7713.2
2014-Jul-06 07:31N 38°24' E 015°39'11 9.7
2014-Jul-06 06:25N 38°13' E 015°37'9 9.5
2014-Jul-06 05:30N 38°05' E 015°35'  
Track history (hours):
 
Tides and Currents Weather Stations Pressure Air Temp Water Temp Dewpoint Dewpoint Depression Visibility Wind Speed Wind Dir Waves Ship Positions

Meloria

Last reported at 2014-Jul-13 07:33 UTC. Time now 2014-Aug-01 15:53 UTC.
Position N 38°18' E 015°24'.
Warning: this ship's position is 19 days out of date.

Length 176 m; draft 8 m.

Type: Ship (hazmat cat A). MMSI: 247171100.

Date/timePositionNaut miles runAvg speedWind from/ knotsBaromVisibWave heightAir tempDewpointWater temp
2014-Jul-13 07:33N 38°18' E 015°24'8 7.9
2014-Jul-13 06:30N 38°13' E 015°16'0 0.0
2014-Jul-13 05:30N 38°13' E 015°16'0 0.0
2014-Jul-12 18:30N 38°13' E 015°16'0 0.0
2014-Jul-12 17:30N 38°13' E 015°16'0 0.0
2014-Jul-12 16:29N 38°13' E 015°16'0 0.0
2014-Jul-12 15:29N 38°13' E 015°16'0 0.0
2014-Jul-12 14:23N 38°13' E 015°16'0 0.0
2014-Jul-12 13:29N 38°13' E 015°16'0 0.0
2014-Jul-12 12:29N 38°13' E 015°16'0 0.0
2014-Jul-12 11:29N 38°13' E 015°16'0 0.0
2014-Jul-12 10:29N 38°13' E 015°16'0 0.0
2014-Jul-12 09:29N 38°13' E 015°16'0 0.0
2014-Jul-12 08:29N 38°13' E 015°16'0 0.0
2014-Jul-12 07:11N 38°13' E 015°16'0 0.0
2014-Jul-12 06:29N 38°13' E 015°16'0 0.0
2014-Jul-12 05:29N 38°13' E 015°16'1 0.1
2014-Jul-11 16:32N 38°13' E 015°16'0 0.0
2014-Jul-11 15:32N 38°13' E 015°16'0 0.0
2014-Jul-11 14:32N 38°13' E 015°16'0 0.0
2014-Jul-11 13:32N 38°13' E 015°16'0 0.0
2014-Jul-11 12:26N 38°13' E 015°16'0 0.0
2014-Jul-11 11:32N 38°13' E 015°16'0 0.0
2014-Jul-11 10:32N 38°13' E 015°16'0 0.0
2014-Jul-11 09:32N 38°13' E 015°16'1 0.7
2014-Jul-11 08:33N 38°14' E 015°16'14812.1
2014-Jul-10 20:20N 40°26' E 013°48'1112.4
2014-Jul-10 19:29N 40°35' E 013°42'1111.8
2014-Jul-10 18:33N 40°46' E 013°38'1412.7
2014-Jul-10 17:27N 40°60' E 013°40'  
2014-Jul-08 04:05N 41°13' E 013°40'0 0.0
2014-Jul-08 00:32N 41°13' E 013°40'0 0.1
2014-Jul-07 23:20N 41°13' E 013°40'0 0.0
2014-Jul-07 22:26N 41°13' E 013°40'0 0.0
2014-Jul-07 20:32N 41°13' E 013°40'0 0.0
2014-Jul-07 19:29N 41°13' E 013°40'0 0.0
2014-Jul-07 18:32N 41°13' E 013°40'0 0.0
2014-Jul-07 17:32N 41°13' E 013°40'0 0.1
2014-Jul-07 16:23N 41°13' E 013°40'0 0.1
2014-Jul-07 15:32N 41°13' E 013°40'0 0.0
2014-Jul-07 14:32N 41°13' E 013°40'0 0.1
2014-Jul-07 13:29N 41°13' E 013°40'0 0.0
2014-Jul-07 12:32N 41°13' E 013°40'0 0.0
2014-Jul-07 11:32N 41°13' E 013°40'0 0.0
2014-Jul-07 08:17N 41°13' E 013°40'0 0.0
2014-Jul-07 04:25N 41°13' E 013°40'0 0.0
2014-Jul-07 03:33N 41°13' E 013°40'0 0.0
2014-Jul-07 02:28N 41°13' E 013°40'0 0.0
2014-Jul-07 01:33N 41°13' E 013°40'0 0.0
2014-Jul-07 00:33N 41°13' E 013°40'0 0.0
2014-Jul-06 23:32N 41°13' E 013°40'4 3.5
2014-Jul-06 22:29N 41°09' E 013°41'1213.0
2014-Jul-06 21:33N 40°57' E 013°40'1312.8
2014-Jul-06 20:33N 40°44' E 013°39'1110.6
2014-Jul-06 19:33N 40°34' E 013°43'1412.6
2014-Jul-06 18:28N 40°23' E 013°53'1213.0
2014-Jul-06 17:33N 40°13' E 014°03'1513.0
2014-Jul-06 16:26N 40°02' E 014°14'4113.3
2014-Jul-06 13:19N 39°28' E 014°44'7713.2
2014-Jul-06 07:31N 38°24' E 015°39'11 9.7
2014-Jul-06 06:25N 38°13' E 015°37'9 9.5
2014-Jul-06 05:30N 38°05' E 015°35'  

Dump ship's entire track history